sensor_id;sensor_type;location;lat;lon;timestamp;P1;durP1;ratioP1;P2;durP2;ratioP2
44850;SDS011;30583;48.714;9.386;2023-03-23T00:01:04;10.25;;;4.40;;
44850;SDS011;30583;48.714;9.386;2023-03-23T00:03:30;8.80;;;4.55;;
44850;SDS011;30583;48.714;9.386;2023-03-23T00:05:57;8.43;;;4.15;;
44850;SDS011;30583;48.714;9.386;2023-03-23T00:08:38;9.50;;;3.78;;
44850;SDS011;30583;48.714;9.386;2023-03-23T00:11:14;10.05;;;4.03;;
44850;SDS011;30583;48.714;9.386;2023-03-23T00:13:43;7.32;;;3.90;;
44850;SDS011;30583;48.714;9.386;2023-03-23T00:16:11;5.40;;;3.70;;
44850;SDS011;30583;48.714;9.386;2023-03-23T00:21:11;7.35;;;4.30;;
44850;SDS011;30583;48.714;9.386;2023-03-23T00:23:38;8.52;;;4.25;;
44850;SDS011;30583;48.714;9.386;2023-03-23T00:26:04;9.70;;;3.90;;
44850;SDS011;30583;48.714;9.386;2023-03-23T00:28:30;11.15;;;4.95;;
44850;SDS011;30583;48.714;9.386;2023-03-23T00:31:03;10.07;;;4.40;;
44850;SDS011;30583;48.714;9.386;2023-03-23T00:33:31;6.45;;;4.10;;
44850;SDS011;30583;48.714;9.386;2023-03-23T00:36:03;7.50;;;3.63;;
44850;SDS011;30583;48.714;9.386;2023-03-23T00:38:29;8.07;;;4.55;;
44850;SDS011;30583;48.714;9.386;2023-03-23T00:40:56;9.25;;;3.80;;
44850;SDS011;30583;48.714;9.386;2023-03-23T00:43:22;6.68;;;4.30;;
44850;SDS011;30583;48.714;9.386;2023-03-23T00:45:49;7.80;;;4.15;;
44850;SDS011;30583;48.714;9.386;2023-03-23T00:48:22;7.30;;;3.60;;
44850;SDS011;30583;48.714;9.386;2023-03-23T00:50:48;9.07;;;4.50;;
44850;SDS011;30583;48.714;9.386;2023-03-23T00:53:15;10.88;;;4.32;;
44850;SDS011;30583;48.714;9.386;2023-03-23T00:55:42;7.28;;;4.43;;
44850;SDS011;30583;48.714;9.386;2023-03-23T00:58:08;7.38;;;3.92;;
44850;SDS011;30583;48.714;9.386;2023-03-23T01:00:35;9.55;;;4.72;;
44850;SDS011;30583;48.714;9.386;2023-03-23T01:03:01;9.57;;;4.38;;
44850;SDS011;30583;48.714;9.386;2023-03-23T01:05:26;12.20;;;4.18;;
44850;SDS011;30583;48.714;9.386;2023-03-23T01:07:59;6.63;;;4.15;;
44850;SDS011;30583;48.714;9.386;2023-03-23T01:10:25;9.13;;;4.05;;
44850;SDS011;30583;48.714;9.386;2023-03-23T01:12:53;8.32;;;3.72;;
44850;SDS011;30583;48.714;9.386;2023-03-23T01:15:19;7.40;;;4.13;;
44850;SDS011;30583;48.714;9.386;2023-03-23T01:17:46;6.85;;;4.15;;
44850;SDS011;30583;48.714;9.386;2023-03-23T01:20:12;7.88;;;4.07;;
44850;SDS011;30583;48.714;9.386;2023-03-23T01:22:40;13.43;;;3.85;;
44850;SDS011;30583;48.714;9.386;2023-03-23T01:25:08;8.43;;;3.95;;
44850;SDS011;30583;48.714;9.386;2023-03-23T01:27:35;6.32;;;3.63;;
44850;SDS011;30583;48.714;9.386;2023-03-23T01:30:02;8.77;;;4.20;;
44850;SDS011;30583;48.714;9.386;2023-03-23T01:32:29;6.03;;;3.60;;
44850;SDS011;30583;48.714;9.386;2023-03-23T01:34:54;8.07;;;3.72;;
44850;SDS011;30583;48.714;9.386;2023-03-23T01:37:20;7.80;;;4.00;;
44850;SDS011;30583;48.714;9.386;2023-03-23T01:39:51;10.00;;;3.60;;
44850;SDS011;30583;48.714;9.386;2023-03-23T01:42:21;7.03;;;3.80;;
44850;SDS011;30583;48.714;9.386;2023-03-23T01:47:17;9.68;;;4.63;;
44850;SDS011;30583;48.714;9.386;2023-03-23T01:49:48;10.93;;;4.60;;
44850;SDS011;30583;48.714;9.386;2023-03-23T01:52:19;6.90;;;3.80;;
44850;SDS011;30583;48.714;9.386;2023-03-23T01:54:50;9.38;;;4.47;;
44850;SDS011;30583;48.714;9.386;2023-03-23T01:57:20;11.30;;;4.03;;
44850;SDS011;30583;48.714;9.386;2023-03-23T01:59:49;8.35;;;4.07;;
44850;SDS011;30583;48.714;9.386;2023-03-23T02:02:17;11.68;;;4.63;;
44850;SDS011;30583;48.714;9.386;2023-03-23T02:04:46;7.90;;;4.10;;
44850;SDS011;30583;48.714;9.386;2023-03-23T02:07:12;8.35;;;3.78;;
44850;SDS011;30583;48.714;9.386;2023-03-23T02:09:40;7.60;;;4.43;;
44850;SDS011;30583;48.714;9.386;2023-03-23T02:12:05;8.45;;;4.07;;
44850;SDS011;30583;48.714;9.386;2023-03-23T02:14:31;9.35;;;3.75;;
44850;SDS011;30583;48.714;9.386;2023-03-23T02:36:18;6.50;;;3.20;;
44850;SDS011;30583;48.714;9.386;2023-03-23T02:41:22;8.65;;;3.42;;
44850;SDS011;30583;48.714;9.386;2023-03-23T02:43:52;6.93;;;3.42;;
44850;SDS011;30583;48.714;9.386;2023-03-23T02:46:18;7.45;;;3.40;;
44850;SDS011;30583;48.714;9.386;2023-03-23T02:48:47;7.57;;;3.80;;
44850;SDS011;30583;48.714;9.386;2023-03-23T02:51:16;8.43;;;3.70;;
44850;SDS011;30583;48.714;9.386;2023-03-23T02:53:45;6.13;;;3.60;;
44850;SDS011;30583;48.714;9.386;2023-03-23T02:56:13;5.97;;;4.10;;
44850;SDS011;30583;48.714;9.386;2023-03-23T02:58:39;5.68;;;3.90;;
44850;SDS011;30583;48.714;9.386;2023-03-23T03:01:16;8.02;;;3.53;;
44850;SDS011;30583;48.714;9.386;2023-03-23T03:04:04;8.52;;;4.07;;
44850;SDS011;30583;48.714;9.386;2023-03-23T03:09:30;5.95;;;3.92;;
44850;SDS011;30583;48.714;9.386;2023-03-23T03:12:25;8.60;;;4.50;;
44850;SDS011;30583;48.714;9.386;2023-03-23T03:15:44;8.55;;;4.68;;
44850;SDS011;30583;48.714;9.386;2023-03-23T03:18:12;9.68;;;4.22;;
44850;SDS011;30583;48.714;9.386;2023-03-23T03:20:49;8.57;;;4.28;;
44850;SDS011;30583;48.714;9.386;2023-03-23T03:23:18;11.52;;;4.30;;
44850;SDS011;30583;48.714;9.386;2023-03-23T03:25:46;8.43;;;4.28;;
44850;SDS011;30583;48.714;9.386;2023-03-23T03:28:17;8.70;;;4.10;;
44850;SDS011;30583;48.714;9.386;2023-03-23T03:30:47;8.80;;;4.13;;
44850;SDS011;30583;48.714;9.386;2023-03-23T03:33:22;5.82;;;4.10;;
44850;SDS011;30583;48.714;9.386;2023-03-23T03:35:50;9.88;;;3.92;;
44850;SDS011;30583;48.714;9.386;2023-03-23T03:38:20;8.60;;;4.28;;
44850;SDS011;30583;48.714;9.386;2023-03-23T03:40:46;6.13;;;3.42;;
44850;SDS011;30583;48.714;9.386;2023-03-23T03:43:12;8.60;;;3.92;;
44850;SDS011;30583;48.714;9.386;2023-03-23T03:45:37;7.90;;;3.60;;
44850;SDS011;30583;48.714;9.386;2023-03-23T03:48:03;7.43;;;3.90;;
44850;SDS011;30583;48.714;9.386;2023-03-23T03:50:29;6.85;;;3.85;;
44850;SDS011;30583;48.714;9.386;2023-03-23T03:52:54;7.53;;;3.72;;
44850;SDS011;30583;48.714;9.386;2023-03-23T03:55:20;10.02;;;4.38;;
44850;SDS011;30583;48.714;9.386;2023-03-23T03:57:46;5.35;;;3.80;;
44850;SDS011;30583;48.714;9.386;2023-03-23T04:00:12;7.47;;;3.30;;
44850;SDS011;30583;48.714;9.386;2023-03-23T04:02:40;7.85;;;3.42;;
44850;SDS011;30583;48.714;9.386;2023-03-23T04:05:12;5.38;;;3.25;;
44850;SDS011;30583;48.714;9.386;2023-03-23T04:07:38;7.78;;;3.47;;
44850;SDS011;30583;48.714;9.386;2023-03-23T04:10:05;7.20;;;4.05;;
44850;SDS011;30583;48.714;9.386;2023-03-23T04:12:32;7.55;;;3.60;;
44850;SDS011;30583;48.714;9.386;2023-03-23T04:14:57;7.80;;;3.38;;
44850;SDS011;30583;48.714;9.386;2023-03-23T04:17:23;5.78;;;3.30;;
44850;SDS011;30583;48.714;9.386;2023-03-23T04:19:51;6.35;;;3.60;;
44850;SDS011;30583;48.714;9.386;2023-03-23T04:22:17;7.43;;;3.45;;
44850;SDS011;30583;48.714;9.386;2023-03-23T04:24:43;6.57;;;3.55;;
44850;SDS011;30583;48.714;9.386;2023-03-23T04:27:08;7.00;;;3.78;;
44850;SDS011;30583;48.714;9.386;2023-03-23T04:29:34;7.25;;;3.72;;
44850;SDS011;30583;48.714;9.386;2023-03-23T04:32:00;6.90;;;3.92;;
44850;SDS011;30583;48.714;9.386;2023-03-23T04:34:26;7.45;;;3.83;;
44850;SDS011;30583;48.714;9.386;2023-03-23T04:36:52;7.30;;;3.60;;
44850;SDS011;30583;48.714;9.386;2023-03-23T04:39:18;7.75;;;4.10;;
44850;SDS011;30583;48.714;9.386;2023-03-23T04:41:43;9.43;;;4.25;;
44850;SDS011;30583;48.714;9.386;2023-03-23T04:44:10;7.40;;;4.20;;
44850;SDS011;30583;48.714;9.386;2023-03-23T04:46:42;8.60;;;4.25;;
44850;SDS011;30583;48.714;9.386;2023-03-23T04:49:10;9.60;;;3.95;;
44850;SDS011;30583;48.714;9.386;2023-03-23T04:51:36;8.40;;;3.75;;
44850;SDS011;30583;48.714;9.386;2023-03-23T04:54:01;8.02;;;3.92;;
44850;SDS011;30583;48.714;9.386;2023-03-23T04:56:27;8.73;;;4.18;;
44850;SDS011;30583;48.714;9.386;2023-03-23T04:58:52;13.52;;;3.80;;
44850;SDS011;30583;48.714;9.386;2023-03-23T05:01:18;13.05;;;3.85;;
44850;SDS011;30583;48.714;9.386;2023-03-23T05:03:44;12.98;;;4.15;;
44850;SDS011;30583;48.714;9.386;2023-03-23T05:06:10;9.45;;;4.10;;
44850;SDS011;30583;48.714;9.386;2023-03-23T05:08:36;8.35;;;3.72;;
44850;SDS011;30583;48.714;9.386;2023-03-23T05:11:04;8.13;;;3.80;;
44850;SDS011;30583;48.714;9.386;2023-03-23T05:13:31;11.68;;;3.72;;
44850;SDS011;30583;48.714;9.386;2023-03-23T05:15:57;8.45;;;3.63;;
44850;SDS011;30583;48.714;9.386;2023-03-23T05:18:23;8.50;;;4.53;;
44850;SDS011;30583;48.714;9.386;2023-03-23T05:20:51;12.13;;;4.60;;
44850;SDS011;30583;48.714;9.386;2023-03-23T05:23:17;10.23;;;4.35;;
44850;SDS011;30583;48.714;9.386;2023-03-23T05:25:51;9.82;;;4.00;;
44850;SDS011;30583;48.714;9.386;2023-03-23T05:28:21;9.50;;;4.63;;
44850;SDS011;30583;48.714;9.386;2023-03-23T05:30:47;7.18;;;3.75;;
44850;SDS011;30583;48.714;9.386;2023-03-23T05:33:13;7.82;;;3.90;;
44850;SDS011;30583;48.714;9.386;2023-03-23T05:35:39;9.60;;;3.65;;
44850;SDS011;30583;48.714;9.386;2023-03-23T05:38:04;6.60;;;4.28;;
44850;SDS011;30583;48.714;9.386;2023-03-23T05:40:30;8.00;;;3.88;;
44850;SDS011;30583;48.714;9.386;2023-03-23T05:42:56;8.55;;;3.55;;
44850;SDS011;30583;48.714;9.386;2023-03-23T05:45:24;10.65;;;4.00;;
44850;SDS011;30583;48.714;9.386;2023-03-23T05:47:51;7.80;;;3.85;;
44850;SDS011;30583;48.714;9.386;2023-03-23T05:50:17;10.35;;;4.20;;
44850;SDS011;30583;48.714;9.386;2023-03-23T05:52:43;11.10;;;3.67;;
44850;SDS011;30583;48.714;9.386;2023-03-23T05:55:09;7.57;;;3.67;;
44850;SDS011;30583;48.714;9.386;2023-03-23T05:57:35;12.02;;;4.57;;
44850;SDS011;30583;48.714;9.386;2023-03-23T06:00:01;8.38;;;3.80;;
44850;SDS011;30583;48.714;9.386;2023-03-23T06:02:44;7.63;;;3.60;;
44850;SDS011;30583;48.714;9.386;2023-03-23T06:05:11;9.13;;;4.30;;
44850;SDS011;30583;48.714;9.386;2023-03-23T06:07:37;8.57;;;4.35;;
44850;SDS011;30583;48.714;9.386;2023-03-23T06:10:06;8.63;;;3.50;;
44850;SDS011;30583;48.714;9.386;2023-03-23T06:12:33;11.52;;;3.63;;
44850;SDS011;30583;48.714;9.386;2023-03-23T06:15:00;12.48;;;4.18;;
44850;SDS011;30583;48.714;9.386;2023-03-23T06:17:26;11.52;;;3.90;;
44850;SDS011;30583;48.714;9.386;2023-03-23T06:19:51;8.85;;;3.40;;
44850;SDS011;30583;48.714;9.386;2023-03-23T06:22:17;8.85;;;4.30;;
44850;SDS011;30583;48.714;9.386;2023-03-23T06:24:43;12.95;;;3.88;;
44850;SDS011;30583;48.714;9.386;2023-03-23T06:27:09;10.52;;;4.10;;
44850;SDS011;30583;48.714;9.386;2023-03-23T06:29:35;12.57;;;4.22;;
44850;SDS011;30583;48.714;9.386;2023-03-23T06:32:02;18.13;;;6.18;;
44850;SDS011;30583;48.714;9.386;2023-03-23T06:34:29;18.13;;;5.65;;
44850;SDS011;30583;48.714;9.386;2023-03-23T06:36:56;22.02;;;6.10;;
44850;SDS011;30583;48.714;9.386;2023-03-23T06:39:22;20.35;;;6.05;;
44850;SDS011;30583;48.714;9.386;2023-03-23T06:41:48;14.57;;;4.90;;
44850;SDS011;30583;48.714;9.386;2023-03-23T06:44:14;11.90;;;4.15;;
44850;SDS011;30583;48.714;9.386;2023-03-23T06:46:41;18.10;;;4.97;;
44850;SDS011;30583;48.714;9.386;2023-03-23T06:49:07;11.77;;;4.68;;
44850;SDS011;30583;48.714;9.386;2023-03-23T06:51:33;15.43;;;5.22;;
44850;SDS011;30583;48.714;9.386;2023-03-23T06:54:00;12.50;;;4.38;;
44850;SDS011;30583;48.714;9.386;2023-03-23T06:56:26;11.85;;;4.40;;
44850;SDS011;30583;48.714;9.386;2023-03-23T06:58:51;11.35;;;4.38;;
44850;SDS011;30583;48.714;9.386;2023-03-23T07:01:17;13.02;;;5.45;;
44850;SDS011;30583;48.714;9.386;2023-03-23T07:03:43;12.98;;;5.65;;
44850;SDS011;30583;48.714;9.386;2023-03-23T07:06:09;17.92;;;5.78;;
44850;SDS011;30583;48.714;9.386;2023-03-23T07:08:36;25.80;;;6.30;;
44850;SDS011;30583;48.714;9.386;2023-03-23T07:11:02;35.03;;;7.25;;
44850;SDS011;30583;48.714;9.386;2023-03-23T07:13:28;20.95;;;6.63;;
44850;SDS011;30583;48.714;9.386;2023-03-23T07:15:54;17.98;;;5.85;;
44850;SDS011;30583;48.714;9.386;2023-03-23T07:18:20;25.73;;;5.80;;
44850;SDS011;30583;48.714;9.386;2023-03-23T07:20:49;15.20;;;5.15;;
44850;SDS011;30583;48.714;9.386;2023-03-23T07:23:16;15.43;;;5.00;;
44850;SDS011;30583;48.714;9.386;2023-03-23T07:25:43;19.52;;;6.03;;
44850;SDS011;30583;48.714;9.386;2023-03-23T07:28:10;22.67;;;5.70;;
44850;SDS011;30583;48.714;9.386;2023-03-23T07:30:36;17.50;;;5.53;;
44850;SDS011;30583;48.714;9.386;2023-03-23T07:33:06;18.13;;;4.97;;
44850;SDS011;30583;48.714;9.386;2023-03-23T07:35:33;19.90;;;4.68;;
44850;SDS011;30583;48.714;9.386;2023-03-23T07:38:00;16.52;;;5.40;;
44850;SDS011;30583;48.714;9.386;2023-03-23T07:40:26;17.83;;;4.97;;
44850;SDS011;30583;48.714;9.386;2023-03-23T07:42:53;11.27;;;4.72;;
44850;SDS011;30583;48.714;9.386;2023-03-23T07:45:21;16.65;;;4.80;;
44850;SDS011;30583;48.714;9.386;2023-03-23T07:47:47;21.45;;;5.25;;
44850;SDS011;30583;48.714;9.386;2023-03-23T07:50:13;17.70;;;5.57;;
44850;SDS011;30583;48.714;9.386;2023-03-23T07:52:39;17.27;;;5.45;;
44850;SDS011;30583;48.714;9.386;2023-03-23T07:55:06;11.02;;;5.78;;
44850;SDS011;30583;48.714;9.386;2023-03-23T07:57:33;17.42;;;4.85;;
44850;SDS011;30583;48.714;9.386;2023-03-23T07:59:59;17.73;;;5.43;;
44850;SDS011;30583;48.714;9.386;2023-03-23T08:02:25;15.10;;;5.25;;
44850;SDS011;30583;48.714;9.386;2023-03-23T08:04:51;23.45;;;6.00;;
44850;SDS011;30583;48.714;9.386;2023-03-23T08:07:18;17.02;;;5.38;;
44850;SDS011;30583;48.714;9.386;2023-03-23T08:09:45;16.98;;;5.32;;
44850;SDS011;30583;48.714;9.386;2023-03-23T08:12:12;13.65;;;4.93;;
44850;SDS011;30583;48.714;9.386;2023-03-23T08:14:38;27.48;;;7.45;;
44850;SDS011;30583;48.714;9.386;2023-03-23T08:17:05;28.77;;;7.80;;
44850;SDS011;30583;48.714;9.386;2023-03-23T08:19:30;21.85;;;6.38;;
44850;SDS011;30583;48.714;9.386;2023-03-23T08:22:01;14.02;;;6.10;;
44850;SDS011;30583;48.714;9.386;2023-03-23T08:24:28;15.57;;;6.28;;
44850;SDS011;30583;48.714;9.386;2023-03-23T08:26:53;14.48;;;6.05;;
44850;SDS011;30583;48.714;9.386;2023-03-23T08:29:19;14.77;;;5.28;;
44850;SDS011;30583;48.714;9.386;2023-03-23T08:31:44;14.35;;;5.68;;
44850;SDS011;30583;48.714;9.386;2023-03-23T08:34:10;14.68;;;6.10;;
44850;SDS011;30583;48.714;9.386;2023-03-23T08:36:36;13.43;;;5.85;;
44850;SDS011;30583;48.714;9.386;2023-03-23T08:39:02;15.10;;;6.35;;
44850;SDS011;30583;48.714;9.386;2023-03-23T08:41:30;21.63;;;5.75;;
44850;SDS011;30583;48.714;9.386;2023-03-23T08:43:56;14.82;;;4.82;;
44850;SDS011;30583;48.714;9.386;2023-03-23T08:46:22;11.23;;;4.28;;
44850;SDS011;30583;48.714;9.386;2023-03-23T08:48:48;9.45;;;3.97;;
44850;SDS011;30583;48.714;9.386;2023-03-23T08:51:13;10.20;;;3.55;;
44850;SDS011;30583;48.714;9.386;2023-03-23T08:53:40;6.07;;;2.65;;
44850;SDS011;30583;48.714;9.386;2023-03-23T08:56:06;9.00;;;2.72;;
44850;SDS011;30583;48.714;9.386;2023-03-23T08:58:34;5.05;;;2.15;;
44850;SDS011;30583;48.714;9.386;2023-03-23T09:01:01;6.25;;;2.17;;
44850;SDS011;30583;48.714;9.386;2023-03-23T09:03:27;3.65;;;1.77;;
44850;SDS011;30583;48.714;9.386;2023-03-23T09:05:53;3.05;;;1.52;;
44850;SDS011;30583;48.714;9.386;2023-03-23T09:08:22;4.55;;;1.70;;
44850;SDS011;30583;48.714;9.386;2023-03-23T09:10:48;4.38;;;1.80;;
44850;SDS011;30583;48.714;9.386;2023-03-23T09:13:15;3.17;;;1.67;;
44850;SDS011;30583;48.714;9.386;2023-03-23T09:15:40;3.22;;;1.75;;
44850;SDS011;30583;48.714;9.386;2023-03-23T09:18:06;4.78;;;2.63;;
44850;SDS011;30583;48.714;9.386;2023-03-23T09:20:31;4.30;;;2.35;;
44850;SDS011;30583;48.714;9.386;2023-03-23T09:22:57;5.43;;;1.90;;
44850;SDS011;30583;48.714;9.386;2023-03-23T09:25:24;6.15;;;3.15;;
44850;SDS011;30583;48.714;9.386;2023-03-23T09:27:52;3.42;;;1.60;;
44850;SDS011;30583;48.714;9.386;2023-03-23T09:30:26;3.72;;;1.63;;
44850;SDS011;30583;48.714;9.386;2023-03-23T09:32:54;3.50;;;1.67;;
44850;SDS011;30583;48.714;9.386;2023-03-23T09:35:21;3.35;;;1.55;;
44850;SDS011;30583;48.714;9.386;2023-03-23T09:37:47;3.60;;;2.00;;
44850;SDS011;30583;48.714;9.386;2023-03-23T09:40:25;3.70;;;1.50;;
44850;SDS011;30583;48.714;9.386;2023-03-23T09:48:24;3.33;;;2.05;;
44850;SDS011;30583;48.714;9.386;2023-03-23T09:51:00;3.28;;;1.67;;
44850;SDS011;30583;48.714;9.386;2023-03-23T09:53:47;9.55;;;1.85;;
44850;SDS011;30583;48.714;9.386;2023-03-23T09:56:16;3.35;;;1.73;;
44850;SDS011;30583;48.714;9.386;2023-03-23T09:59:08;4.43;;;1.55;;
44850;SDS011;30583;48.714;9.386;2023-03-23T10:01:52;4.72;;;2.17;;
44850;SDS011;30583;48.714;9.386;2023-03-23T10:04:30;5.68;;;2.50;;
44850;SDS011;30583;48.714;9.386;2023-03-23T10:07:11;18.48;;;11.10;;
44850;SDS011;30583;48.714;9.386;2023-03-23T10:09:43;4.85;;;1.80;;
44850;SDS011;30583;48.714;9.386;2023-03-23T10:15:17;3.47;;;1.52;;
44850;SDS011;30583;48.714;9.386;2023-03-23T10:21:13;3.45;;;1.48;;
44850;SDS011;30583;48.714;9.386;2023-03-23T10:28:48;3.03;;;1.30;;
44850;SDS011;30583;48.714;9.386;2023-03-23T10:31:22;7.28;;;1.50;;
44850;SDS011;30583;48.714;9.386;2023-03-23T10:33:50;3.90;;;1.52;;
44850;SDS011;30583;48.714;9.386;2023-03-23T10:36:21;2.63;;;1.52;;
44850;SDS011;30583;48.714;9.386;2023-03-23T10:39:02;3.17;;;1.50;;
44850;SDS011;30583;48.714;9.386;2023-03-23T10:41:34;3.15;;;1.40;;
44850;SDS011;30583;48.714;9.386;2023-03-23T10:44:00;1.92;;;1.30;;
44850;SDS011;30583;48.714;9.386;2023-03-23T10:46:37;3.78;;;1.55;;
44850;SDS011;30583;48.714;9.386;2023-03-23T10:49:13;4.93;;;1.42;;
44850;SDS011;30583;48.714;9.386;2023-03-23T10:51:44;2.65;;;1.48;;
44850;SDS011;30583;48.714;9.386;2023-03-23T10:54:23;3.80;;;1.50;;
44850;SDS011;30583;48.714;9.386;2023-03-23T10:56:58;5.72;;;1.60;;
44850;SDS011;30583;48.714;9.386;2023-03-23T10:59:28;5.07;;;2.10;;
44850;SDS011;30583;48.714;9.386;2023-03-23T11:01:56;2.50;;;1.45;;
44850;SDS011;30583;48.714;9.386;2023-03-23T11:04:27;3.00;;;1.40;;
44850;SDS011;30583;48.714;9.386;2023-03-23T11:06:58;3.20;;;1.60;;
44850;SDS011;30583;48.714;9.386;2023-03-23T11:09:34;5.70;;;2.78;;
44850;SDS011;30583;48.714;9.386;2023-03-23T11:12:01;6.45;;;3.47;;
44850;SDS011;30583;48.714;9.386;2023-03-23T11:14:29;3.85;;;1.67;;
44850;SDS011;30583;48.714;9.386;2023-03-23T11:16:58;2.83;;;1.52;;
44850;SDS011;30583;48.714;9.386;2023-03-23T11:19:35;3.65;;;1.42;;
44850;SDS011;30583;48.714;9.386;2023-03-23T11:24:43;3.47;;;1.50;;
44850;SDS011;30583;48.714;9.386;2023-03-23T11:27:10;4.65;;;2.10;;
44850;SDS011;30583;48.714;9.386;2023-03-23T11:29:42;2.50;;;1.52;;
44850;SDS011;30583;48.714;9.386;2023-03-23T11:32:17;4.55;;;1.75;;
44850;SDS011;30583;48.714;9.386;2023-03-23T11:34:43;4.65;;;1.50;;
44850;SDS011;30583;48.714;9.386;2023-03-23T11:37:13;4.93;;;2.15;;
44850;SDS011;30583;48.714;9.386;2023-03-23T11:39:53;2.60;;;1.35;;
44850;SDS011;30583;48.714;9.386;2023-03-23T11:42:22;3.05;;;1.40;;
44850;SDS011;30583;48.714;9.386;2023-03-23T11:44:53;4.47;;;1.70;;
44850;SDS011;30583;48.714;9.386;2023-03-23T11:55:55;3.60;;;1.80;;
44850;SDS011;30583;48.714;9.386;2023-03-23T11:58:29;4.25;;;1.80;;
44850;SDS011;30583;48.714;9.386;2023-03-23T12:00:58;3.72;;;1.40;;
44850;SDS011;30583;48.714;9.386;2023-03-23T12:07:21;3.55;;;2.25;;
44850;SDS011;30583;48.714;9.386;2023-03-23T12:20:23;30.85;;;19.85;;
44850;SDS011;30583;48.714;9.386;2023-03-23T12:22:54;6.85;;;2.90;;
44850;SDS011;30583;48.714;9.386;2023-03-23T12:31:46;23.13;;;16.27;;
44850;SDS011;30583;48.714;9.386;2023-03-23T12:34:44;3.80;;;2.05;;
44850;SDS011;30583;48.714;9.386;2023-03-23T12:39:50;3.03;;;1.50;;
44850;SDS011;30583;48.714;9.386;2023-03-23T12:42:43;3.47;;;1.70;;
44850;SDS011;30583;48.714;9.386;2023-03-23T12:47:57;3.05;;;1.63;;
44850;SDS011;30583;48.714;9.386;2023-03-23T12:50:40;3.00;;;1.45;;
44850;SDS011;30583;48.714;9.386;2023-03-23T12:53:17;3.08;;;1.95;;
44850;SDS011;30583;48.714;9.386;2023-03-23T12:55:47;3.80;;;1.73;;
44850;SDS011;30583;48.714;9.386;2023-03-23T12:58:19;3.47;;;1.50;;
44850;SDS011;30583;48.714;9.386;2023-03-23T13:03:32;2.83;;;1.33;;
44850;SDS011;30583;48.714;9.386;2023-03-23T13:08:44;3.17;;;1.40;;
44850;SDS011;30583;48.714;9.386;2023-03-23T13:11:20;3.08;;;1.40;;
44850;SDS011;30583;48.714;9.386;2023-03-23T13:14:07;3.17;;;1.40;;
44850;SDS011;30583;48.714;9.386;2023-03-23T13:22:04;3.58;;;1.77;;
44850;SDS011;30583;48.714;9.386;2023-03-23T13:24:36;2.95;;;1.90;;
44850;SDS011;30583;48.714;9.386;2023-03-23T13:27:08;3.08;;;1.40;;
44850;SDS011;30583;48.714;9.386;2023-03-23T13:29:36;3.70;;;1.73;;
44850;SDS011;30583;48.714;9.386;2023-03-23T13:32:15;4.55;;;2.35;;
44850;SDS011;30583;48.714;9.386;2023-03-23T13:34:43;3.72;;;1.50;;
44850;SDS011;30583;48.714;9.386;2023-03-23T13:37:23;2.72;;;1.55;;
44850;SDS011;30583;48.714;9.386;2023-03-23T13:39:51;3.28;;;1.70;;
44850;SDS011;30583;48.714;9.386;2023-03-23T13:42:25;3.10;;;1.63;;
44850;SDS011;30583;48.714;9.386;2023-03-23T13:49:56;4.88;;;1.90;;
44850;SDS011;30583;48.714;9.386;2023-03-23T13:57:55;3.25;;;1.70;;
44850;SDS011;30583;48.714;9.386;2023-03-23T14:10:52;3.55;;;1.50;;
44850;SDS011;30583;48.714;9.386;2023-03-23T14:15:54;7.38;;;5.22;;
44850;SDS011;30583;48.714;9.386;2023-03-23T14:18:23;12.93;;;8.10;;
44850;SDS011;30583;48.714;9.386;2023-03-23T14:20:54;3.78;;;1.98;;
44850;SDS011;30583;48.714;9.386;2023-03-23T14:23:22;3.42;;;1.55;;
44850;SDS011;30583;48.714;9.386;2023-03-23T14:25:55;2.65;;;1.67;;
44850;SDS011;30583;48.714;9.386;2023-03-23T14:28:30;16.02;;;6.80;;
44850;SDS011;30583;48.714;9.386;2023-03-23T14:30:57;4.63;;;2.10;;
44850;SDS011;30583;48.714;9.386;2023-03-23T14:33:24;4.53;;;1.83;;
44850;SDS011;30583;48.714;9.386;2023-03-23T14:35:52;2.58;;;1.63;;
44850;SDS011;30583;48.714;9.386;2023-03-23T14:38:19;6.80;;;2.50;;
44850;SDS011;30583;48.714;9.386;2023-03-23T14:40:48;3.33;;;2.00;;
44850;SDS011;30583;48.714;9.386;2023-03-23T14:43:15;2.67;;;1.52;;
44850;SDS011;30583;48.714;9.386;2023-03-23T14:45:43;6.90;;;4.55;;
44850;SDS011;30583;48.714;9.386;2023-03-23T14:48:16;7.70;;;2.85;;
44850;SDS011;30583;48.714;9.386;2023-03-23T14:50:48;6.97;;;2.75;;
44850;SDS011;30583;48.714;9.386;2023-03-23T14:53:19;6.60;;;3.30;;
44850;SDS011;30583;48.714;9.386;2023-03-23T14:56:12;5.00;;;2.30;;
44850;SDS011;30583;48.714;9.386;2023-03-23T14:58:43;3.97;;;1.90;;
44850;SDS011;30583;48.714;9.386;2023-03-23T15:01:10;3.60;;;1.88;;
44850;SDS011;30583;48.714;9.386;2023-03-23T15:03:42;3.13;;;2.03;;
44850;SDS011;30583;48.714;9.386;2023-03-23T15:06:17;3.58;;;2.03;;
44850;SDS011;30583;48.714;9.386;2023-03-23T15:08:46;3.78;;;2.13;;
44850;SDS011;30583;48.714;9.386;2023-03-23T15:13:43;4.40;;;1.88;;
44850;SDS011;30583;48.714;9.386;2023-03-23T15:16:12;5.30;;;1.90;;
44850;SDS011;30583;48.714;9.386;2023-03-23T15:18:50;3.88;;;1.70;;
44850;SDS011;30583;48.714;9.386;2023-03-23T15:23:52;4.72;;;2.40;;
44850;SDS011;30583;48.714;9.386;2023-03-23T15:26:33;3.15;;;1.85;;
44850;SDS011;30583;48.714;9.386;2023-03-23T15:29:11;5.30;;;2.13;;
44850;SDS011;30583;48.714;9.386;2023-03-23T15:31:43;4.53;;;2.65;;
44850;SDS011;30583;48.714;9.386;2023-03-23T15:34:13;6.28;;;2.15;;
44850;SDS011;30583;48.714;9.386;2023-03-23T15:36:45;4.15;;;2.42;;
44850;SDS011;30583;48.714;9.386;2023-03-23T15:39:13;3.85;;;2.25;;
44850;SDS011;30583;48.714;9.386;2023-03-23T15:41:47;5.68;;;2.08;;
44850;SDS011;30583;48.714;9.386;2023-03-23T15:44:21;4.45;;;1.98;;
44850;SDS011;30583;48.714;9.386;2023-03-23T15:46:55;3.78;;;1.98;;
44850;SDS011;30583;48.714;9.386;2023-03-23T15:49:37;3.47;;;1.90;;
44850;SDS011;30583;48.714;9.386;2023-03-23T15:52:03;4.80;;;1.98;;
44850;SDS011;30583;48.714;9.386;2023-03-23T15:54:29;5.60;;;3.53;;
44850;SDS011;30583;48.714;9.386;2023-03-23T15:56:56;4.20;;;1.90;;
44850;SDS011;30583;48.714;9.386;2023-03-23T15:59:22;4.20;;;2.30;;
44850;SDS011;30583;48.714;9.386;2023-03-23T16:01:47;3.45;;;1.85;;
44850;SDS011;30583;48.714;9.386;2023-03-23T16:04:14;4.82;;;2.00;;
44850;SDS011;30583;48.714;9.386;2023-03-23T16:06:43;4.78;;;1.73;;
44850;SDS011;30583;48.714;9.386;2023-03-23T16:09:16;3.95;;;2.25;;
44850;SDS011;30583;48.714;9.386;2023-03-23T16:11:43;3.63;;;1.88;;
44850;SDS011;30583;48.714;9.386;2023-03-23T16:14:09;4.00;;;1.98;;
44850;SDS011;30583;48.714;9.386;2023-03-23T16:16:37;3.55;;;1.70;;
44850;SDS011;30583;48.714;9.386;2023-03-23T16:19:06;4.43;;;1.85;;
44850;SDS011;30583;48.714;9.386;2023-03-23T16:21:32;4.38;;;1.80;;
44850;SDS011;30583;48.714;9.386;2023-03-23T16:23:58;3.78;;;1.83;;
44850;SDS011;30583;48.714;9.386;2023-03-23T16:26:24;3.40;;;1.85;;
44850;SDS011;30583;48.714;9.386;2023-03-23T16:28:50;3.67;;;1.95;;
44850;SDS011;30583;48.714;9.386;2023-03-23T16:31:15;4.22;;;1.65;;
44850;SDS011;30583;48.714;9.386;2023-03-23T16:33:41;4.40;;;1.98;;
44850;SDS011;30583;48.714;9.386;2023-03-23T16:36:06;3.15;;;1.77;;
44850;SDS011;30583;48.714;9.386;2023-03-23T16:38:35;4.50;;;2.05;;
44850;SDS011;30583;48.714;9.386;2023-03-23T16:41:01;4.45;;;2.00;;
44850;SDS011;30583;48.714;9.386;2023-03-23T16:43:27;3.92;;;1.73;;
44850;SDS011;30583;48.714;9.386;2023-03-23T16:45:54;2.90;;;1.80;;
44850;SDS011;30583;48.714;9.386;2023-03-23T16:48:21;3.95;;;1.60;;
44850;SDS011;30583;48.714;9.386;2023-03-23T16:50:47;4.03;;;2.08;;
44850;SDS011;30583;48.714;9.386;2023-03-23T16:53:12;9.90;;;5.90;;
44850;SDS011;30583;48.714;9.386;2023-03-23T16:55:38;20.30;;;4.97;;
44850;SDS011;30583;48.714;9.386;2023-03-23T16:58:04;4.18;;;2.38;;